sensor_id;sensor_type;location;lat;lon;timestamp;P1;durP1;ratioP1;P2;durP2;ratioP2
28960;SDS011;16068;42.896;20.868;2022-12-07T04:15:52;40.97;;;22.98;;
28960;SDS011;16068;42.896;20.868;2022-12-07T04:18:39;39.50;;;22.67;;
28960;SDS011;16068;42.896;20.868;2022-12-07T04:21:24;37.35;;;22.63;;
28960;SDS011;16068;42.896;20.868;2022-12-07T04:24:11;39.45;;;21.77;;
28960;SDS011;16068;42.896;20.868;2022-12-07T04:26:58;39.35;;;22.58;;
28960;SDS011;16068;42.896;20.868;2022-12-07T04:29:44;42.67;;;25.25;;
28960;SDS011;16068;42.896;20.868;2022-12-07T04:32:29;54.53;;;27.45;;
28960;SDS011;16068;42.896;20.868;2022-12-07T04:35:16;48.55;;;26.63;;
28960;SDS011;16068;42.896;20.868;2022-12-07T04:38:02;51.40;;;29.50;;
28960;SDS011;16068;42.896;20.868;2022-12-07T04:40:47;53.60;;;31.77;;
28960;SDS011;16068;42.896;20.868;2022-12-07T04:43:33;51.00;;;30.17;;
28960;SDS011;16068;42.896;20.868;2022-12-07T04:46:19;46.83;;;25.35;;
28960;SDS011;16068;42.896;20.868;2022-12-07T04:49:05;43.17;;;26.45;;
28960;SDS011;16068;42.896;20.868;2022-12-07T04:51:51;44.75;;;26.20;;
28960;SDS011;16068;42.896;20.868;2022-12-07T04:54:37;47.17;;;25.80;;
28960;SDS011;16068;42.896;20.868;2022-12-07T04:57:22;41.42;;;23.88;;
28960;SDS011;16068;42.896;20.868;2022-12-07T05:00:08;39.47;;;22.92;;
28960;SDS011;16068;42.896;20.868;2022-12-07T05:02:54;38.38;;;25.10;;
28960;SDS011;16068;42.896;20.868;2022-12-07T05:05:40;50.13;;;24.70;;
28960;SDS011;16068;42.896;20.868;2022-12-07T05:08:27;47.63;;;25.25;;
28960;SDS011;16068;42.896;20.868;2022-12-07T05:11:13;49.65;;;25.02;;
28960;SDS011;16068;42.896;20.868;2022-12-07T05:14:18;45.47;;;24.45;;
28960;SDS011;16068;42.896;20.868;2022-12-07T05:17:05;47.83;;;25.05;;
28960;SDS011;16068;42.896;20.868;2022-12-07T05:19:51;41.10;;;22.50;;
28960;SDS011;16068;42.896;20.868;2022-12-07T05:22:37;39.78;;;22.73;;
28960;SDS011;16068;42.896;20.868;2022-12-07T05:25:23;44.08;;;23.83;;
28960;SDS011;16068;42.896;20.868;2022-12-07T05:28:10;40.40;;;23.70;;
28960;SDS011;16068;42.896;20.868;2022-12-07T05:30:56;41.92;;;24.58;;
28960;SDS011;16068;42.896;20.868;2022-12-07T05:33:44;39.85;;;23.98;;
28960;SDS011;16068;42.896;20.868;2022-12-07T05:36:30;52.35;;;25.98;;
28960;SDS011;16068;42.896;20.868;2022-12-07T05:39:17;45.85;;;24.80;;
28960;SDS011;16068;42.896;20.868;2022-12-07T05:42:03;41.33;;;23.45;;
28960;SDS011;16068;42.896;20.868;2022-12-07T05:44:58;51.42;;;25.90;;
28960;SDS011;16068;42.896;20.868;2022-12-07T05:47:44;44.00;;;25.60;;
28960;SDS011;16068;42.896;20.868;2022-12-07T05:50:29;45.70;;;24.70;;
28960;SDS011;16068;42.896;20.868;2022-12-07T05:53:19;42.72;;;24.77;;
28960;SDS011;16068;42.896;20.868;2022-12-07T05:56:07;43.15;;;23.00;;
28960;SDS011;16068;42.896;20.868;2022-12-07T05:58:54;38.47;;;21.80;;
28960;SDS011;16068;42.896;20.868;2022-12-07T06:04:48;35.03;;;20.98;;
28960;SDS011;16068;42.896;20.868;2022-12-07T06:07:33;41.28;;;21.60;;
28960;SDS011;16068;42.896;20.868;2022-12-07T06:10:19;34.63;;;19.70;;
28960;SDS011;16068;42.896;20.868;2022-12-07T06:13:05;36.42;;;21.27;;
28960;SDS011;16068;42.896;20.868;2022-12-07T06:15:51;34.38;;;22.30;;
28960;SDS011;16068;42.896;20.868;2022-12-07T06:18:36;42.40;;;22.58;;
28960;SDS011;16068;42.896;20.868;2022-12-07T06:21:22;35.72;;;21.33;;
28960;SDS011;16068;42.896;20.868;2022-12-07T06:24:12;32.80;;;19.17;;
28960;SDS011;16068;42.896;20.868;2022-12-07T06:26:59;33.45;;;19.52;;
28960;SDS011;16068;42.896;20.868;2022-12-07T06:29:45;35.15;;;19.98;;
28960;SDS011;16068;42.896;20.868;2022-12-07T06:32:31;40.78;;;21.35;;
28960;SDS011;16068;42.896;20.868;2022-12-07T06:35:17;40.00;;;22.50;;
28960;SDS011;16068;42.896;20.868;2022-12-07T06:38:03;36.55;;;20.50;;
28960;SDS011;16068;42.896;20.868;2022-12-07T06:40:49;37.13;;;21.95;;
28960;SDS011;16068;42.896;20.868;2022-12-07T06:43:34;35.42;;;22.05;;
28960;SDS011;16068;42.896;20.868;2022-12-07T06:46:20;39.50;;;22.10;;
28960;SDS011;16068;42.896;20.868;2022-12-07T06:49:07;37.38;;;20.85;;
28960;SDS011;16068;42.896;20.868;2022-12-07T06:51:53;36.45;;;21.75;;
28960;SDS011;16068;42.896;20.868;2022-12-07T06:54:39;40.45;;;21.70;;
28960;SDS011;16068;42.896;20.868;2022-12-07T06:57:25;38.63;;;21.42;;
28960;SDS011;16068;42.896;20.868;2022-12-07T07:00:11;33.58;;;20.48;;
28960;SDS011;16068;42.896;20.868;2022-12-07T07:03:06;35.67;;;20.33;;
28960;SDS011;16068;42.896;20.868;2022-12-07T07:05:52;30.75;;;18.27;;
28960;SDS011;16068;42.896;20.868;2022-12-07T07:08:38;27.70;;;17.65;;
28960;SDS011;16068;42.896;20.868;2022-12-07T07:11:24;36.22;;;19.48;;
28960;SDS011;16068;42.896;20.868;2022-12-07T07:14:10;34.92;;;18.83;;
28960;SDS011;16068;42.896;20.868;2022-12-07T07:16:56;31.38;;;17.95;;
28960;SDS011;16068;42.896;20.868;2022-12-07T07:19:42;32.95;;;21.02;;
28960;SDS011;16068;42.896;20.868;2022-12-07T07:22:28;31.77;;;19.58;;
28960;SDS011;16068;42.896;20.868;2022-12-07T07:25:13;35.65;;;21.35;;
28960;SDS011;16068;42.896;20.868;2022-12-07T07:28:00;35.20;;;22.50;;
28960;SDS011;16068;42.896;20.868;2022-12-07T07:30:46;38.70;;;21.88;;
28960;SDS011;16068;42.896;20.868;2022-12-07T07:33:32;39.00;;;22.95;;
28960;SDS011;16068;42.896;20.868;2022-12-07T07:36:18;42.15;;;23.88;;
28960;SDS011;16068;42.896;20.868;2022-12-07T07:39:04;37.15;;;20.42;;
28960;SDS011;16068;42.896;20.868;2022-12-07T07:41:50;42.00;;;22.13;;
28960;SDS011;16068;42.896;20.868;2022-12-07T07:44:43;35.33;;;22.35;;
28960;SDS011;16068;42.896;20.868;2022-12-07T07:47:29;42.42;;;24.30;;
28960;SDS011;16068;42.896;20.868;2022-12-07T07:50:15;37.33;;;21.83;;
28960;SDS011;16068;42.896;20.868;2022-12-07T07:53:02;46.17;;;24.35;;
28960;SDS011;16068;42.896;20.868;2022-12-07T07:55:52;42.53;;;25.15;;
28960;SDS011;16068;42.896;20.868;2022-12-07T07:58:40;35.63;;;21.20;;
28960;SDS011;16068;42.896;20.868;2022-12-07T08:01:27;29.48;;;18.42;;
28960;SDS011;16068;42.896;20.868;2022-12-07T08:04:13;35.15;;;19.58;;
28960;SDS011;16068;42.896;20.868;2022-12-07T08:06:59;38.78;;;22.27;;
28960;SDS011;16068;42.896;20.868;2022-12-07T08:09:44;31.48;;;19.40;;
28960;SDS011;16068;42.896;20.868;2022-12-07T08:12:31;35.38;;;19.50;;
28960;SDS011;16068;42.896;20.868;2022-12-07T08:15:16;33.50;;;20.98;;
28960;SDS011;16068;42.896;20.868;2022-12-07T08:18:03;34.90;;;22.33;;
28960;SDS011;16068;42.896;20.868;2022-12-07T08:20:49;36.72;;;22.63;;
28960;SDS011;16068;42.896;20.868;2022-12-07T08:23:35;36.50;;;17.98;;
28960;SDS011;16068;42.896;20.868;2022-12-07T08:26:24;29.85;;;18.73;;
28960;SDS011;16068;42.896;20.868;2022-12-07T08:29:10;31.63;;;19.20;;
28960;SDS011;16068;42.896;20.868;2022-12-07T08:31:56;32.15;;;19.30;;
28960;SDS011;16068;42.896;20.868;2022-12-07T08:34:43;37.13;;;20.38;;
28960;SDS011;16068;42.896;20.868;2022-12-07T08:37:29;30.52;;;18.50;;
28960;SDS011;16068;42.896;20.868;2022-12-07T08:40:17;34.55;;;21.27;;
28960;SDS011;16068;42.896;20.868;2022-12-07T08:43:04;35.80;;;20.10;;
28960;SDS011;16068;42.896;20.868;2022-12-07T08:45:55;33.67;;;20.30;;
28960;SDS011;16068;42.896;20.868;2022-12-07T08:51:56;33.42;;;18.27;;
28960;SDS011;16068;42.896;20.868;2022-12-07T08:54:42;30.48;;;18.02;;
28960;SDS011;16068;42.896;20.868;2022-12-07T08:57:28;29.02;;;18.08;;
28960;SDS011;16068;42.896;20.868;2022-12-07T09:00:15;32.63;;;18.70;;
28960;SDS011;16068;42.896;20.868;2022-12-07T09:03:02;28.25;;;16.35;;
28960;SDS011;16068;42.896;20.868;2022-12-07T09:05:52;30.05;;;17.95;;
28960;SDS011;16068;42.896;20.868;2022-12-07T09:08:40;32.60;;;18.38;;
28960;SDS011;16068;42.896;20.868;2022-12-07T09:11:28;28.67;;;17.02;;
28960;SDS011;16068;42.896;20.868;2022-12-07T09:14:14;29.52;;;17.40;;
28960;SDS011;16068;42.896;20.868;2022-12-07T09:17:07;30.45;;;16.85;;
28960;SDS011;16068;42.896;20.868;2022-12-07T09:22:40;26.00;;;15.23;;
28960;SDS011;16068;42.896;20.868;2022-12-07T09:25:25;26.27;;;13.88;;
28960;SDS011;16068;42.896;20.868;2022-12-07T09:28:12;23.55;;;13.07;;
28960;SDS011;16068;42.896;20.868;2022-12-07T09:30:58;22.73;;;13.52;;
28960;SDS011;16068;42.896;20.868;2022-12-07T09:34:06;23.10;;;13.55;;
28960;SDS011;16068;42.896;20.868;2022-12-07T09:36:52;27.10;;;11.13;;
28960;SDS011;16068;42.896;20.868;2022-12-07T09:39:39;17.30;;;11.52;;
28960;SDS011;16068;42.896;20.868;2022-12-07T09:42:34;16.40;;;10.23;;
28960;SDS011;16068;42.896;20.868;2022-12-07T09:45:43;26.50;;;13.90;;
28960;SDS011;16068;42.896;20.868;2022-12-07T09:48:34;17.10;;;11.48;;
28960;SDS011;16068;42.896;20.868;2022-12-07T09:51:22;21.40;;;11.23;;
28960;SDS011;16068;42.896;20.868;2022-12-07T09:54:14;33.17;;;11.95;;
28960;SDS011;16068;42.896;20.868;2022-12-07T09:57:03;21.48;;;11.73;;
28960;SDS011;16068;42.896;20.868;2022-12-07T09:59:51;22.65;;;12.40;;
28960;SDS011;16068;42.896;20.868;2022-12-07T10:02:40;20.45;;;11.13;;
28960;SDS011;16068;42.896;20.868;2022-12-07T10:05:32;20.27;;;11.32;;
28960;SDS011;16068;42.896;20.868;2022-12-07T10:08:24;20.02;;;12.05;;
28960;SDS011;16068;42.896;20.868;2022-12-07T10:11:12;19.35;;;10.85;;
28960;SDS011;16068;42.896;20.868;2022-12-07T10:14:10;21.98;;;12.02;;
28960;SDS011;16068;42.896;20.868;2022-12-07T10:16:58;26.15;;;13.77;;
28960;SDS011;16068;42.896;20.868;2022-12-07T10:19:44;21.27;;;13.25;;
28960;SDS011;16068;42.896;20.868;2022-12-07T10:22:30;23.15;;;11.43;;
28960;SDS011;16068;42.896;20.868;2022-12-07T10:25:20;23.80;;;11.23;;
28960;SDS011;16068;42.896;20.868;2022-12-07T10:30:55;20.00;;;9.43;;
28960;SDS011;16068;42.896;20.868;2022-12-07T10:33:49;13.25;;;8.85;;
28960;SDS011;16068;42.896;20.868;2022-12-07T10:36:43;15.98;;;9.32;;
28960;SDS011;16068;42.896;20.868;2022-12-07T10:39:29;16.45;;;9.88;;
28960;SDS011;16068;42.896;20.868;2022-12-07T10:42:35;20.63;;;9.43;;
28960;SDS011;16068;42.896;20.868;2022-12-07T10:45:21;22.17;;;9.40;;
28960;SDS011;16068;42.896;20.868;2022-12-07T10:57:32;20.80;;;10.45;;
28960;SDS011;16068;42.896;20.868;2022-12-07T11:06:39;16.02;;;8.98;;
28960;SDS011;16068;42.896;20.868;2022-12-07T11:15:54;27.33;;;14.48;;
28960;SDS011;16068;42.896;20.868;2022-12-07T11:31:52;20.80;;;10.90;;
28960;SDS011;16068;42.896;20.868;2022-12-07T11:34:42;27.80;;;11.93;;
28960;SDS011;16068;42.896;20.868;2022-12-07T11:37:59;21.00;;;9.82;;
28960;SDS011;16068;42.896;20.868;2022-12-07T11:40:51;26.70;;;11.73;;
28960;SDS011;16068;42.896;20.868;2022-12-07T11:47:10;31.23;;;13.60;;
28960;SDS011;16068;42.896;20.868;2022-12-07T11:53:17;78.13;;;14.30;;
28960;SDS011;16068;42.896;20.868;2022-12-07T11:56:12;28.10;;;14.45;;
28960;SDS011;16068;42.896;20.868;2022-12-07T12:05:19;41.47;;;14.35;;
28960;SDS011;16068;42.896;20.868;2022-12-07T12:18:17;28.70;;;15.65;;
28960;SDS011;16068;42.896;20.868;2022-12-07T12:21:18;30.80;;;15.48;;
28960;SDS011;16068;42.896;20.868;2022-12-07T12:27:03;29.27;;;15.38;;
28960;SDS011;16068;42.896;20.868;2022-12-07T12:29:56;28.58;;;14.48;;
28960;SDS011;16068;42.896;20.868;2022-12-07T12:32:44;37.50;;;19.63;;
28960;SDS011;16068;42.896;20.868;2022-12-07T12:35:32;26.73;;;13.55;;
28960;SDS011;16068;42.896;20.868;2022-12-07T12:50:42;34.28;;;16.75;;
28960;SDS011;16068;42.896;20.868;2022-12-07T12:53:27;30.98;;;17.27;;
28960;SDS011;16068;42.896;20.868;2022-12-07T12:59:25;24.92;;;12.85;;
28960;SDS011;16068;42.896;20.868;2022-12-07T13:05:16;32.45;;;14.55;;
28960;SDS011;16068;42.896;20.868;2022-12-07T13:08:18;32.17;;;15.30;;
28960;SDS011;16068;42.896;20.868;2022-12-07T13:11:17;27.83;;;14.00;;
28960;SDS011;16068;42.896;20.868;2022-12-07T13:14:37;29.42;;;13.35;;
28960;SDS011;16068;42.896;20.868;2022-12-07T13:20:42;22.73;;;11.30;;
28960;SDS011;16068;42.896;20.868;2022-12-07T13:29:17;32.15;;;13.07;;
28960;SDS011;16068;42.896;20.868;2022-12-07T13:32:17;23.50;;;11.90;;
28960;SDS011;16068;42.896;20.868;2022-12-07T13:35:31;23.58;;;12.50;;
28960;SDS011;16068;42.896;20.868;2022-12-07T13:38:33;31.27;;;13.43;;
28960;SDS011;16068;42.896;20.868;2022-12-07T13:41:41;30.10;;;13.35;;
28960;SDS011;16068;42.896;20.868;2022-12-07T13:44:27;25.23;;;15.00;;
28960;SDS011;16068;42.896;20.868;2022-12-07T13:50:23;47.33;;;22.75;;
28960;SDS011;16068;42.896;20.868;2022-12-07T13:53:11;46.75;;;19.08;;
28960;SDS011;16068;42.896;20.868;2022-12-07T13:55:59;37.05;;;16.75;;
28960;SDS011;16068;42.896;20.868;2022-12-07T13:58:47;30.42;;;16.52;;
28960;SDS011;16068;42.896;20.868;2022-12-07T14:01:33;40.20;;;17.42;;
28960;SDS011;16068;42.896;20.868;2022-12-07T14:04:27;35.08;;;17.45;;
28960;SDS011;16068;42.896;20.868;2022-12-07T14:10:22;45.42;;;21.88;;
28960;SDS011;16068;42.896;20.868;2022-12-07T14:16:29;38.10;;;19.70;;
28960;SDS011;16068;42.896;20.868;2022-12-07T14:22:34;52.45;;;22.45;;
28960;SDS011;16068;42.896;20.868;2022-12-07T14:25:22;37.30;;;18.55;;
28960;SDS011;16068;42.896;20.868;2022-12-07T14:28:09;44.47;;;22.23;;
28960;SDS011;16068;42.896;20.868;2022-12-07T14:31:12;43.70;;;20.27;;
28960;SDS011;16068;42.896;20.868;2022-12-07T14:34:13;36.08;;;18.48;;
28960;SDS011;16068;42.896;20.868;2022-12-07T14:37:00;68.03;;;27.90;;
28960;SDS011;16068;42.896;20.868;2022-12-07T14:39:46;43.78;;;19.80;;
28960;SDS011;16068;42.896;20.868;2022-12-07T14:42:32;33.03;;;15.40;;
28960;SDS011;16068;42.896;20.868;2022-12-07T14:45:19;38.65;;;16.88;;
28960;SDS011;16068;42.896;20.868;2022-12-07T14:48:07;35.88;;;14.98;;
28960;SDS011;16068;42.896;20.868;2022-12-07T14:51:16;32.03;;;15.68;;
28960;SDS011;16068;42.896;20.868;2022-12-07T14:54:22;45.35;;;18.45;;
28960;SDS011;16068;42.896;20.868;2022-12-07T14:57:10;39.15;;;18.38;;
28960;SDS011;16068;42.896;20.868;2022-12-07T14:59:56;43.92;;;17.20;;
28960;SDS011;16068;42.896;20.868;2022-12-07T15:02:43;30.85;;;14.10;;
28960;SDS011;16068;42.896;20.868;2022-12-07T15:05:32;38.25;;;15.30;;
28960;SDS011;16068;42.896;20.868;2022-12-07T15:08:19;46.97;;;20.02;;
28960;SDS011;16068;42.896;20.868;2022-12-07T15:11:06;45.63;;;19.17;;
28960;SDS011;16068;42.896;20.868;2022-12-07T15:13:52;46.72;;;19.38;;
28960;SDS011;16068;42.896;20.868;2022-12-07T15:16:56;37.90;;;17.73;;
28960;SDS011;16068;42.896;20.868;2022-12-07T15:20:03;40.70;;;18.58;;
28960;SDS011;16068;42.896;20.868;2022-12-07T15:22:50;37.50;;;18.63;;
28960;SDS011;16068;42.896;20.868;2022-12-07T15:25:36;43.30;;;21.55;;
28960;SDS011;16068;42.896;20.868;2022-12-07T15:28:22;59.30;;;24.17;;
28960;SDS011;16068;42.896;20.868;2022-12-07T15:31:12;60.22;;;28.48;;
28960;SDS011;16068;42.896;20.868;2022-12-07T15:34:25;67.07;;;28.80;;
28960;SDS011;16068;42.896;20.868;2022-12-07T15:37:22;52.90;;;23.20;;
28960;SDS011;16068;42.896;20.868;2022-12-07T15:40:08;47.45;;;19.83;;
28960;SDS011;16068;42.896;20.868;2022-12-07T15:42:54;37.28;;;19.20;;
28960;SDS011;16068;42.896;20.868;2022-12-07T15:45:40;40.17;;;18.60;;
28960;SDS011;16068;42.896;20.868;2022-12-07T15:48:26;39.65;;;20.15;;
28960;SDS011;16068;42.896;20.868;2022-12-07T15:51:13;47.58;;;20.80;;
28960;SDS011;16068;42.896;20.868;2022-12-07T15:54:03;46.25;;;26.52;;
28960;SDS011;16068;42.896;20.868;2022-12-07T15:56:49;54.88;;;28.52;;
28960;SDS011;16068;42.896;20.868;2022-12-07T15:59:36;59.72;;;28.20;;
28960;SDS011;16068;42.896;20.868;2022-12-07T16:02:22;55.90;;;26.60;;
28960;SDS011;16068;42.896;20.868;2022-12-07T16:05:09;51.92;;;23.27;;
28960;SDS011;16068;42.896;20.868;2022-12-07T16:07:55;46.90;;;21.77;;
28960;SDS011;16068;42.896;20.868;2022-12-07T16:10:41;55.60;;;23.58;;
28960;SDS011;16068;42.896;20.868;2022-12-07T16:13:28;42.47;;;19.85;;
28960;SDS011;16068;42.896;20.868;2022-12-07T16:16:17;41.30;;;21.77;;
28960;SDS011;16068;42.896;20.868;2022-12-07T16:19:04;43.47;;;21.23;;
28960;SDS011;16068;42.896;20.868;2022-12-07T16:21:50;58.40;;;30.00;;
28960;SDS011;16068;42.896;20.868;2022-12-07T16:24:36;44.88;;;20.30;;
28960;SDS011;16068;42.896;20.868;2022-12-07T16:27:22;53.45;;;29.33;;
28960;SDS011;16068;42.896;20.868;2022-12-07T16:30:08;49.30;;;24.42;;
28960;SDS011;16068;42.896;20.868;2022-12-07T16:32:55;94.78;;;46.55;;
28960;SDS011;16068;42.896;20.868;2022-12-07T16:35:46;83.47;;;36.80;;
28960;SDS011;16068;42.896;20.868;2022-12-07T16:38:33;75.10;;;36.75;;
28960;SDS011;16068;42.896;20.868;2022-12-07T16:41:19;99.75;;;49.10;;
28960;SDS011;16068;42.896;20.868;2022-12-07T16:44:06;111.25;;;50.97;;
28960;SDS011;16068;42.896;20.868;2022-12-07T16:46:55;80.95;;;37.78;;
28960;SDS011;16068;42.896;20.868;2022-12-07T16:49:42;83.82;;;37.70;;
28960;SDS011;16068;42.896;20.868;2022-12-07T16:52:28;73.90;;;35.13;;
28960;SDS011;16068;42.896;20.868;2022-12-07T16:55:14;82.00;;;40.17;;
28960;SDS011;16068;42.896;20.868;2022-12-07T16:58:00;79.65;;;37.78;;
28960;SDS011;16068;42.896;20.868;2022-12-07T17:00:46;71.30;;;34.42;;
28960;SDS011;16068;42.896;20.868;2022-12-07T17:03:32;73.20;;;37.35;;
28960;SDS011;16068;42.896;20.868;2022-12-07T17:06:23;92.45;;;45.75;;
28960;SDS011;16068;42.896;20.868;2022-12-07T17:09:10;131.13;;;69.82;;
28960;SDS011;16068;42.896;20.868;2022-12-07T17:12:05;70.30;;;37.35;;
28960;SDS011;16068;42.896;20.868;2022-12-07T17:14:52;67.57;;;36.08;;
28960;SDS011;16068;42.896;20.868;2022-12-07T17:17:57;69.55;;;35.22;;
28960;SDS011;16068;42.896;20.868;2022-12-07T17:20:43;65.80;;;32.03;;
28960;SDS011;16068;42.896;20.868;2022-12-07T17:23:29;55.50;;;25.65;;
28960;SDS011;16068;42.896;20.868;2022-12-07T17:26:16;51.40;;;24.38;;
28960;SDS011;16068;42.896;20.868;2022-12-07T17:29:04;51.22;;;23.52;;
28960;SDS011;16068;42.896;20.868;2022-12-07T17:31:50;40.67;;;20.60;;
28960;SDS011;16068;42.896;20.868;2022-12-07T17:34:36;42.33;;;21.05;;
28960;SDS011;16068;42.896;20.868;2022-12-07T17:37:22;39.78;;;18.83;;
28960;SDS011;16068;42.896;20.868;2022-12-07T17:40:08;44.50;;;19.92;;
28960;SDS011;16068;42.896;20.868;2022-12-07T17:42:54;46.45;;;19.70;;
28960;SDS011;16068;42.896;20.868;2022-12-07T17:45:40;44.10;;;20.15;;
28960;SDS011;16068;42.896;20.868;2022-12-07T17:48:26;41.58;;;19.83;;
28960;SDS011;16068;42.896;20.868;2022-12-07T17:51:12;43.40;;;20.58;;
28960;SDS011;16068;42.896;20.868;2022-12-07T17:54:16;38.85;;;20.27;;
28960;SDS011;16068;42.896;20.868;2022-12-07T17:57:03;41.50;;;21.20;;
28960;SDS011;16068;42.896;20.868;2022-12-07T17:59:49;37.88;;;18.98;;
28960;SDS011;16068;42.896;20.868;2022-12-07T18:02:36;40.10;;;18.50;;
28960;SDS011;16068;42.896;20.868;2022-12-07T18:05:22;45.92;;;19.08;;
28960;SDS011;16068;42.896;20.868;2022-12-07T18:08:08;39.80;;;17.77;;
28960;SDS011;16068;42.896;20.868;2022-12-07T18:10:58;35.50;;;17.80;;
28960;SDS011;16068;42.896;20.868;2022-12-07T18:13:44;33.75;;;18.90;;
28960;SDS011;16068;42.896;20.868;2022-12-07T18:16:31;34.47;;;17.75;;
28960;SDS011;16068;42.896;20.868;2022-12-07T18:19:18;34.47;;;17.80;;
28960;SDS011;16068;42.896;20.868;2022-12-07T18:22:05;40.55;;;17.63;;
28960;SDS011;16068;42.896;20.868;2022-12-07T18:24:51;40.17;;;17.67;;
28960;SDS011;16068;42.896;20.868;2022-12-07T18:27:36;31.55;;;17.10;;
28960;SDS011;16068;42.896;20.868;2022-12-07T18:30:22;42.65;;;17.55;;
28960;SDS011;16068;42.896;20.868;2022-12-07T18:33:28;35.30;;;16.92;;
28960;SDS011;16068;42.896;20.868;2022-12-07T18:36:15;34.92;;;18.58;;
28960;SDS011;16068;42.896;20.868;2022-12-07T18:39:05;40.78;;;20.40;;
28960;SDS011;16068;42.896;20.868;2022-12-07T18:41:51;38.00;;;20.10;;
28960;SDS011;16068;42.896;20.868;2022-12-07T18:44:37;36.38;;;19.33;;
28960;SDS011;16068;42.896;20.868;2022-12-07T18:47:23;39.10;;;19.75;;
28960;SDS011;16068;42.896;20.868;2022-12-07T18:50:09;42.58;;;19.63;;
28960;SDS011;16068;42.896;20.868;2022-12-07T18:52:59;39.38;;;19.45;;
28960;SDS011;16068;42.896;20.868;2022-12-07T18:55:45;38.90;;;19.48;;
28960;SDS011;16068;42.896;20.868;2022-12-07T18:58:31;38.72;;;20.73;;
28960;SDS011;16068;42.896;20.868;2022-12-07T19:01:18;40.45;;;18.33;;
28960;SDS011;16068;42.896;20.868;2022-12-07T19:04:04;47.38;;;18.88;;
28960;SDS011;16068;42.896;20.868;2022-12-07T19:06:50;37.90;;;18.92;;
28960;SDS011;16068;42.896;20.868;2022-12-07T19:09:36;37.42;;;18.10;;
28960;SDS011;16068;42.896;20.868;2022-12-07T19:12:22;38.45;;;21.38;;
28960;SDS011;16068;42.896;20.868;2022-12-07T19:15:09;39.97;;;18.25;;
28960;SDS011;16068;42.896;20.868;2022-12-07T19:17:56;39.03;;;19.17;;
28960;SDS011;16068;42.896;20.868;2022-12-07T19:20:42;37.08;;;19.67;;
28960;SDS011;16068;42.896;20.868;2022-12-07T19:23:28;39.15;;;18.35;;
28960;SDS011;16068;42.896;20.868;2022-12-07T19:26:14;47.08;;;18.83;;
28960;SDS011;16068;42.896;20.868;2022-12-07T19:29:00;35.40;;;18.52;;
28960;SDS011;16068;42.896;20.868;2022-12-07T19:31:47;32.83;;;18.50;;
28960;SDS011;16068;42.896;20.868;2022-12-07T19:34:33;34.85;;;18.50;;
28960;SDS011;16068;42.896;20.868;2022-12-07T19:37:20;36.53;;;18.73;;
28960;SDS011;16068;42.896;20.868;2022-12-07T19:40:05;35.05;;;18.17;;
28960;SDS011;16068;42.896;20.868;2022-12-07T19:42:52;38.92;;;18.70;;
28960;SDS011;16068;42.896;20.868;2022-12-07T19:45:38;37.53;;;17.75;;
28960;SDS011;16068;42.896;20.868;2022-12-07T19:48:23;40.33;;;17.45;;
28960;SDS011;16068;42.896;20.868;2022-12-07T19:51:09;30.85;;;17.02;;
28960;SDS011;16068;42.896;20.868;2022-12-07T19:53:59;39.15;;;17.75;;
28960;SDS011;16068;42.896;20.868;2022-12-07T19:56:46;34.40;;;17.75;;
28960;SDS011;16068;42.896;20.868;2022-12-07T19:59:32;31.75;;;17.42;;
28960;SDS011;16068;42.896;20.868;2022-12-07T20:02:19;40.47;;;18.15;;
28960;SDS011;16068;42.896;20.868;2022-12-07T20:05:05;36.20;;;18.52;;
28960;SDS011;16068;42.896;20.868;2022-12-07T20:07:51;42.35;;;21.30;;
28960;SDS011;16068;42.896;20.868;2022-12-07T20:10:38;43.30;;;20.83;;
28960;SDS011;16068;42.896;20.868;2022-12-07T20:13:24;45.05;;;20.63;;
28960;SDS011;16068;42.896;20.868;2022-12-07T20:16:13;46.33;;;22.48;;
28960;SDS011;16068;42.896;20.868;2022-12-07T20:19:05;49.58;;;22.38;;
28960;SDS011;16068;42.896;20.868;2022-12-07T20:21:51;51.72;;;23.10;;
28960;SDS011;16068;42.896;20.868;2022-12-07T20:24:38;50.85;;;25.63;;
28960;SDS011;16068;42.896;20.868;2022-12-07T20:27:24;46.75;;;24.83;;
28960;SDS011;16068;42.896;20.868;2022-12-07T20:30:10;46.78;;;23.42;;
28960;SDS011;16068;42.896;20.868;2022-12-07T20:32:56;47.28;;;24.65;;
28960;SDS011;16068;42.896;20.868;2022-12-07T20:35:42;59.33;;;26.02;;
28960;SDS011;16068;42.896;20.868;2022-12-07T20:38:29;55.30;;;25.52;;
28960;SDS011;16068;42.896;20.868;2022-12-07T20:41:17;60.72;;;28.25;;
28960;SDS011;16068;42.896;20.868;2022-12-07T20:44:22;53.80;;;27.73;;
28960;SDS011;16068;42.896;20.868;2022-12-07T20:47:08;55.88;;;27.83;;
28960;SDS011;16068;42.896;20.868;2022-12-07T20:49:54;58.65;;;29.38;;
28960;SDS011;16068;42.896;20.868;2022-12-07T20:52:39;55.70;;;28.52;;
28960;SDS011;16068;42.896;20.868;2022-12-07T20:55:25;55.70;;;31.92;;
28960;SDS011;16068;42.896;20.868;2022-12-07T20:58:11;62.38;;;31.00;;
28960;SDS011;16068;42.896;20.868;2022-12-07T21:01:01;53.78;;;29.25;;
28960;SDS011;16068;42.896;20.868;2022-12-07T21:03:48;55.83;;;29.45;;
28960;SDS011;16068;42.896;20.868;2022-12-07T21:06:34;57.80;;;29.20;;
28960;SDS011;16068;42.896;20.868;2022-12-07T21:09:20;73.85;;;33.00;;
28960;SDS011;16068;42.896;20.868;2022-12-07T21:12:11;63.95;;;31.73;;
28960;SDS011;16068;42.896;20.868;2022-12-07T21:14:58;56.42;;;28.85;;
28960;SDS011;16068;42.896;20.868;2022-12-07T21:17:44;69.65;;;30.92;;
28960;SDS011;16068;42.896;20.868;2022-12-07T21:20:31;54.88;;;28.75;;
28960;SDS011;16068;42.896;20.868;2022-12-07T21:23:17;66.15;;;30.55;;
28960;SDS011;16068;42.896;20.868;2022-12-07T21:26:09;53.05;;;27.98;;
28960;SDS011;16068;42.896;20.868;2022-12-07T21:28:58;54.78;;;30.27;;
28960;SDS011;16068;42.896;20.868;2022-12-07T21:31:44;61.70;;;28.33;;
28960;SDS011;16068;42.896;20.868;2022-12-07T21:34:30;50.65;;;27.35;;
28960;SDS011;16068;42.896;20.868;2022-12-07T21:37:16;53.00;;;27.90;;
28960;SDS011;16068;42.896;20.868;2022-12-07T21:40:03;58.03;;;28.63;;
28960;SDS011;16068;42.896;20.868;2022-12-07T21:42:58;57.22;;;28.55;;
28960;SDS011;16068;42.896;20.868;2022-12-07T21:45:48;52.20;;;27.75;;
28960;SDS011;16068;42.896;20.868;2022-12-07T21:48:38;42.28;;;24.52;;
28960;SDS011;16068;42.896;20.868;2022-12-07T21:51:25;64.30;;;29.35;;
28960;SDS011;16068;42.896;20.868;2022-12-07T21:54:12;54.47;;;30.02;;
28960;SDS011;16068;42.896;20.868;2022-12-07T21:56:58;52.35;;;28.45;;
28960;SDS011;16068;42.896;20.868;2022-12-07T21:59:44;56.15;;;30.13;;
28960;SDS011;16068;42.896;20.868;2022-12-07T22:02:30;63.22;;;33.15;;
28960;SDS011;16068;42.896;20.868;2022-12-07T22:05:16;56.85;;;32.10;;
28960;SDS011;16068;42.896;20.868;2022-12-07T22:08:02;59.83;;;32.58;;
28960;SDS011;16068;42.896;20.868;2022-12-07T22:10:49;58.08;;;32.00;;
28960;SDS011;16068;42.896;20.868;2022-12-07T22:13:36;50.53;;;32.53;;
28960;SDS011;16068;42.896;20.868;2022-12-07T22:16:41;70.03;;;36.53;;
28960;SDS011;16068;42.896;20.868;2022-12-07T22:19:27;66.75;;;36.53;;